Time;durP1;ratioP1;P1;durP2;ratioP2;P2;SDS_P1;SDS_P2;PMS_P1;PMS_P2;Temp;Humidity;BMP_temperature;BMP_pressure;BME280_temperature;BME280_humidity;BME280_pressure;Samples;Min_cycle;Max_cycle;Signal;HPM_P1;HPM_P2
2021/12/10 00:02:02;;;;;;;2.60;1.45;;;4.10;92.20;;;;;;10119331;28;21065;-65
2021/12/10 00:06:57;;;;;;;5.35;2.20;;;4.10;92.30;;;;;;10116561;28;20048;-64
2021/12/10 00:11:49;;;;;;;2.53;1.55;;;4.10;92.30;;;;;;10105693;28;20482;-65
2021/12/10 00:16:41;;;;;;;3.25;1.23;;;4.00;92.30;;;;;;10110522;28;20320;-63
2021/12/10 00:21:32;;;;;;;2.63;1.50;;;4.00;92.40;;;;;;10137658;28;20418;-63
2021/12/10 00:26:23;;;;;;;2.63;1.25;;;4.00;92.40;;;;;;10111538;28;20056;-64
2021/12/10 00:31:43;;;;;;;2.78;1.45;;;3.90;92.40;;;;;;10115547;28;20028;-65
2021/12/10 00:36:36;;;;;;;3.90;1.52;;;4.00;92.30;;;;;;10116592;28;21472;-65
2021/12/10 00:41:28;;;;;;;3.33;1.20;;;3.90;92.30;;;;;;10115995;28;20035;-65
2021/12/10 00:46:19;;;;;;;6.13;1.65;;;3.90;92.30;;;;;;10113597;28;20032;-66
2021/12/10 00:51:12;;;;;;;3.95;2.03;;;3.90;92.40;;;;;;10120635;28;20020;-65
2021/12/10 00:56:04;;;;;;;2.92;1.85;;;3.90;92.40;;;;;;10120405;28;20024;-66
2021/12/10 01:00:58;;;;;;;3.03;1.50;;;3.90;92.40;;;;;;10109226;28;20108;-66
2021/12/10 01:05:53;;;;;;;3.70;1.17;;;3.90;92.40;;;;;;10111135;28;20032;-64
2021/12/10 01:10:59;;;;;;;3.00;2.25;;;3.90;92.40;;;;;;10107034;28;20651;-64
2021/12/10 01:31:07;;;;;;;3.10;1.10;;;3.90;92.50;;;;;;10090680;28;20062;-65
2021/12/10 01:35:59;;;;;;;2.03;0.98;;;3.90;92.50;;;;;;10106732;28;20211;-65
2021/12/10 01:40:55;;;;;;;2.53;0.88;;;3.90;92.40;;;;;;10106915;28;20024;-66
2021/12/10 01:45:47;;;;;;;2.35;0.98;;;3.80;92.40;;;;;;10118710;28;20044;-64
2021/12/10 01:50:39;;;;;;;1.80;0.70;;;3.90;92.40;;;;;;10112381;28;20025;-65
2021/12/10 01:55:32;;;;;;;2.35;0.98;;;3.80;92.40;;;;;;10112937;28;20314;-65
2021/12/10 02:00:27;;;;;;;1.23;0.93;;;3.90;92.30;;;;;;10133684;28;20598;-65
2021/12/10 02:05:19;;;;;;;1.25;0.98;;;3.90;92.30;;;;;;10112137;28;20040;-63
2021/12/10 02:10:11;;;;;;;2.08;0.70;;;3.80;92.30;;;;;;10106993;28;20048;-64
2021/12/10 02:15:04;;;;;;;4.63;1.00;;;3.80;92.30;;;;;;10107229;28;20041;-64
2021/12/10 02:19:55;;;;;;;1.95;1.55;;;3.90;92.40;;;;;;10107097;28;20052;-64
2021/12/10 02:24:45;;;;;;;1.13;0.90;;;3.90;92.20;;;;;;10117492;28;20081;-65
2021/12/10 02:29:38;;;;;;;2.97;1.40;;;4.00;92.20;;;;;;10116040;28;20098;-65
2021/12/10 02:34:29;;;;;;;2.92;0.85;;;4.00;92.10;;;;;;10115979;28;20436;-64
2021/12/10 02:39:23;;;;;;;4.22;1.02;;;4.00;92.00;;;;;;10118699;28;20036;-64
2021/12/10 02:44:16;;;;;;;2.70;0.80;;;4.00;92.00;;;;;;10120711;28;20560;-63
2021/12/10 02:49:10;;;;;;;5.93;1.77;;;3.90;92.10;;;;;;10126454;28;20174;-64
2021/12/10 02:54:02;;;;;;;1.67;1.15;;;3.90;92.10;;;;;;10117028;28;20025;-63
2021/12/10 02:58:59;;;;;;;1.30;0.85;;;3.80;92.00;;;;;;10117450;28;20415;-66
2021/12/10 03:03:50;;;;;;;1.90;0.70;;;3.80;92.10;;;;;;10108031;28;20024;-63
2021/12/10 03:08:44;;;;;;;1.30;0.63;;;3.80;92.00;;;;;;10113943;28;20139;-65
2021/12/10 03:13:35;;;;;;;0.77;0.70;;;3.80;92.00;;;;;;10119250;28;20098;-64
2021/12/10 03:18:27;;;;;;;1.35;0.82;;;3.80;92.00;;;;;;10113482;28;20051;-63
2021/12/10 03:23:18;;;;;;;2.92;1.00;;;3.50;92.20;;;;;;10110195;28;20060;-64
2021/12/10 03:28:10;;;;;;;3.03;1.02;;;3.40;92.20;;;;;;10115574;28;20059;-64
2021/12/10 03:33:02;;;;;;;2.92;1.27;;;3.30;92.30;;;;;;10121323;28;20039;-64
2021/12/10 03:37:53;;;;;;;2.10;1.08;;;3.20;92.30;;;;;;10109538;28;20390;-64
2021/12/10 03:42:47;;;;;;;2.75;1.13;;;3.20;92.40;;;;;;10116280;28;20025;-64
2021/12/10 03:47:39;;;;;;;1.45;1.10;;;3.20;92.20;;;;;;10122757;28;20051;-64
2021/12/10 03:52:29;;;;;;;1.52;0.88;;;3.20;92.20;;;;;;10119897;28;20283;-64
2021/12/10 03:57:20;;;;;;;2.88;1.45;;;3.20;92.50;;;;;;10108984;28;20427;-64
2021/12/10 04:02:12;;;;;;;1.15;0.82;;;3.20;92.20;;;;;;10112409;28;20540;-64
2021/12/10 04:07:08;;;;;;;6.80;1.67;;;3.20;92.20;;;;;;10119248;28;20123;-64
2021/12/10 04:11:59;;;;;;;1.27;0.93;;;3.20;92.10;;;;;;10111046;28;20024;-64
2021/12/10 04:16:55;;;;;;;2.03;1.30;;;3.30;92.00;;;;;;10121239;28;20123;-64
2021/12/10 04:21:46;;;;;;;;;;;3.30;92.10;;;;;;10121342;28;20477;-66
2021/12/10 04:26:37;;;;;;;2.40;0.93;;;3.30;92.00;;;;;;10119883;28;19962;-64
2021/12/10 04:31:28;;;;;;;2.97;1.42;;;3.30;92.10;;;;;;10122876;28;20029;-64
2021/12/10 04:36:19;;;;;;;5.45;1.45;;;3.30;92.10;;;;;;10118635;28;20447;-64
2021/12/10 04:41:11;;;;;;;2.40;1.23;;;3.30;92.10;;;;;;10116965;28;20563;-64
2021/12/10 04:46:03;;;;;;;3.35;1.50;;;3.20;92.10;;;;;;10110705;28;20028;-65
2021/12/10 04:50:54;;;;;;;3.60;1.58;;;3.20;92.20;;;;;;10116380;28;20028;-63
2021/12/10 04:55:45;;;;;;;3.40;1.52;;;3.40;92.20;;;;;;10109895;28;20039;-64
2021/12/10 05:00:44;;;;;;;1.88;1.02;;;3.40;92.20;;;;;;10119380;28;20429;-65
2021/12/10 05:05:36;;;;;;;4.43;1.25;;;3.30;92.20;;;;;;10111520;28;20492;-64
2021/12/10 05:10:27;;;;;;;6.30;1.70;;;3.30;92.30;;;;;;10117644;28;20060;-63
2021/12/10 05:15:22;;;;;;;3.92;2.10;;;3.40;92.30;;;;;;10115046;28;20387;-65
2021/12/10 05:20:17;;;;;;;3.00;1.55;;;3.30;92.40;;;;;;10114880;28;20048;-66
2021/12/10 05:25:09;;;;;;;1.23;1.07;;;3.30;92.50;;;;;;10116911;28;20712;-64
2021/12/10 05:30:00;;;;;;;4.25;1.65;;;3.40;92.40;;;;;;10111902;28;20493;-64
2021/12/10 05:34:50;;;;;;;4.63;1.80;;;3.30;92.40;;;;;;10120935;28;20044;-63
2021/12/10 05:39:41;;;;;;;4.75;2.08;;;3.30;92.50;;;;;;10115790;28;20033;-64
2021/12/10 05:44:32;;;;;;;2.83;1.80;;;3.40;92.40;;;;;;10109762;28;20020;-64
2021/12/10 05:49:23;;;;;;;4.85;1.70;;;3.40;92.30;;;;;;10121926;28;20048;-64
2021/12/10 05:54:14;;;;;;;5.43;2.00;;;3.40;92.40;;;;;;10104677;28;20032;-63
2021/12/10 05:59:05;;;;;;;1.80;1.30;;;3.30;92.40;;;;;;10126516;28;20032;-64
2021/12/10 06:03:56;;;;;;;3.10;1.63;;;3.40;92.50;;;;;;10112274;28;20017;-65
2021/12/10 06:08:47;;;;;;;2.50;1.63;;;3.40;92.30;;;;;;10117472;28;20550;-64
2021/12/10 06:13:38;;;;;;;5.95;1.55;;;3.50;92.30;;;;;;10115429;28;20664;-64
2021/12/10 06:18:28;;;;;;;2.45;1.52;;;3.40;92.30;;;;;;10127613;28;20123;-64
2021/12/10 06:23:20;;;;;;;2.85;1.20;;;3.40;92.40;;;;;;10119454;28;20037;-64
2021/12/10 06:28:10;;;;;;;2.85;1.35;;;3.40;92.40;;;;;;10113575;28;20048;-63
2021/12/10 06:33:05;;;;;;;4.00;1.80;;;3.50;92.30;;;;;;10132110;28;20629;-65
2021/12/10 06:37:57;;;;;;;2.65;1.77;;;3.30;92.40;;;;;;10127109;28;20545;-64
2021/12/10 06:42:49;;;;;;;4.68;2.13;;;3.30;92.50;;;;;;10124133;28;20054;-65
2021/12/10 06:47:42;;;;;;;3.65;1.65;;;3.30;92.50;;;;;;10121797;28;20175;-64
2021/12/10 06:52:32;;;;;;;6.70;1.73;;;3.10;92.60;;;;;;10117300;28;20044;-65
2021/12/10 06:57:23;;;;;;;6.38;2.15;;;3.00;92.70;;;;;;10127281;28;20067;-65
2021/12/10 07:02:14;;;;;;;2.28;1.30;;;3.00;92.80;;;;;;10123116;28;20070;-65
2021/12/10 07:07:05;;;;;;;2.53;1.77;;;3.00;92.60;;;;;;10117402;28;20116;-63
2021/12/10 07:11:57;;;;;;;2.63;2.22;;;3.00;92.60;;;;;;10115583;28;20028;-64
2021/12/10 07:16:48;;;;;;;4.80;1.45;;;3.00;92.60;;;;;;10121161;28;20639;-64
2021/12/10 07:21:39;;;;;;;5.05;1.95;;;3.00;92.70;;;;;;10120681;28;20033;-64
2021/12/10 07:26:30;;;;;;;4.97;2.25;;;3.10;92.70;;;;;;10122159;28;20041;-64
2021/12/10 07:31:23;;;;;;;4.78;2.00;;;3.30;92.70;;;;;;10131800;28;20048;-64
2021/12/10 07:36:15;;;;;;;2.55;1.45;;;3.40;92.50;;;;;;10123398;28;20116;-66
2021/12/10 07:41:06;;;;;;;4.07;2.33;;;3.40;92.40;;;;;;10128259;28;20493;-67
2021/12/10 07:45:57;;;;;;;5.20;2.38;;;3.40;92.40;;;;;;10121170;28;20071;-69
2021/12/10 07:51:04;;;;;;;2.75;1.77;;;3.60;92.50;;;;;;10128219;28;20040;-70
2021/12/10 07:55:57;;;;;;;4.45;1.77;;;3.60;92.50;;;;;;10137167;28;20056;-70
2021/12/10 08:00:49;;;;;;;2.33;1.63;;;3.70;92.50;;;;;;10125695;28;20021;-71
2021/12/10 08:05:40;;;;;;;2.92;1.48;;;3.60;92.60;;;;;;10125584;28;20393;-69
2021/12/10 08:10:32;;;;;;;6.05;1.75;;;3.60;92.70;;;;;;10121831;28;20028;-67
2021/12/10 08:15:23;;;;;;;6.68;1.90;;;3.70;92.70;;;;;;10119221;28;20479;-65
2021/12/10 08:20:19;;;;;;;4.13;2.22;;;3.60;92.90;;;;;;10119716;28;20049;-68
2021/12/10 08:25:10;;;;;;;12.10;2.42;;;3.60;93.10;;;;;;10121334;28;20059;-68
2021/12/10 08:30:03;;;;;;;5.13;2.63;;;3.50;93.10;;;;;;10118630;28;20036;-71
2021/12/10 08:34:54;;;;;;;2.58;1.83;;;3.50;93.10;;;;;;10121844;28;20020;-72
2021/12/10 08:39:45;;;;;;;4.50;1.70;;;3.40;93.20;;;;;;10115546;28;20044;-73
2021/12/10 08:44:36;;;;;;;5.45;1.98;;;3.30;93.30;;;;;;10121408;28;20024;-68
2021/12/10 08:49:28;;;;;;;7.60;2.10;;;3.20;93.50;;;;;;10136242;28;20119;-72
2021/12/10 08:54:23;;;;;;;2.45;1.75;;;3.30;93.40;;;;;;10121782;28;20514;-71
2021/12/10 08:59:15;;;;;;;3.30;2.05;;;3.30;93.30;;;;;;10123462;28;20458;-72
2021/12/10 09:04:07;;;;;;;4.45;2.00;;;3.20;93.60;;;;;;10123227;28;20032;-71
2021/12/10 09:08:58;;;;;;;3.45;1.65;;;3.20;93.60;;;;;;10117439;28;20482;-68
2021/12/10 09:13:50;;;;;;;3.92;1.52;;;3.40;93.50;;;;;;10123255;28;20162;-69
2021/12/10 09:18:40;;;;;;;3.80;1.92;;;3.40;93.50;;;;;;10119002;28;20470;-68
2021/12/10 09:23:32;;;;;;;3.17;1.30;;;3.50;93.40;;;;;;10114179;28;20108;-68
2021/12/10 09:28:25;;;;;;;2.55;1.30;;;3.50;93.50;;;;;;10118116;28;20161;-64
2021/12/10 09:33:16;;;;;;;3.35;2.45;;;3.40;94.00;;;;;;10119894;28;20086;-65
2021/12/10 09:38:07;;;;;;;3.22;1.50;;;3.50;93.80;;;;;;10123755;28;20047;-64
2021/12/10 09:42:58;;;;;;;1.88;1.50;;;3.70;93.90;;;;;;10117832;28;20075;-64
2021/12/10 09:47:50;;;;;;;3.30;1.50;;;3.70;93.90;;;;;;10117141;28;20238;-70
2021/12/10 09:52:42;;;;;;;2.50;1.30;;;3.80;93.90;;;;;;10123252;28;20279;-70
2021/12/10 09:57:34;;;;;;;2.58;1.70;;;3.80;94.00;;;;;;10122517;28;20131;-66
2021/12/10 10:02:26;;;;;;;1.48;1.20;;;4.00;93.90;;;;;;10113070;28;20090;-71
2021/12/10 10:07:25;;;;;;;2.50;1.73;;;3.90;93.90;;;;;;10107203;28;20279;-69
2021/12/10 10:12:20;;;;;;;1.70;1.20;;;4.00;94.10;;;;;;10121236;28;20359;-70
2021/12/10 10:17:13;;;;;;;1.20;0.93;;;4.00;94.10;;;;;;10115129;28;20024;-68
2021/12/10 10:22:07;;;;;;;2.85;1.33;;;3.90;94.00;;;;;;10121000;28;20051;-71
2021/12/10 10:27:06;;;;;;;1.50;0.82;;;3.80;94.20;;;;;;10123701;28;20028;-69
2021/12/10 10:32:07;;;;;;;1.83;1.10;;;3.70;94.20;;;;;;10122371;28;20112;-67
2021/12/10 10:36:58;;;;;;;4.57;1.27;;;3.60;94.30;;;;;;10117834;28;20033;-67
2021/12/10 10:41:53;;;;;;;1.58;1.00;;;3.60;94.30;;;;;;10120678;28;20063;-71
2021/12/10 10:46:46;;;;;;;1.98;1.05;;;3.80;94.20;;;;;;10113532;28;20032;-69
2021/12/10 10:51:41;;;;;;;1.23;0.95;;;3.80;94.10;;;;;;10112527;28;20040;-69
2021/12/10 10:56:45;;;;;;;3.05;1.60;;;3.90;94.10;;;;;;10111709;28;20021;-63
2021/12/10 11:01:44;;;;;;;5.45;1.55;;;3.90;94.20;;;;;;10123743;28;20029;-67
2021/12/10 11:06:41;;;;;;;2.42;1.58;;;4.00;94.30;;;;;;10119915;28;20028;-62
2021/12/10 11:11:35;;;;;;;3.30;1.70;;;4.10;94.20;;;;;;10127623;28;20052;-64
2021/12/10 11:16:29;;;;;;;6.35;1.77;;;4.10;94.30;;;;;;10121296;28;20543;-64
2021/12/10 11:21:49;;;;;;;4.05;1.75;;;4.30;94.30;;;;;;10113900;28;20596;-66
2021/12/10 11:27:05;;;;;;;3.25;1.80;;;4.00;94.40;;;;;;10120289;28;20127;-66
2021/12/10 11:32:02;;;;;;;3.15;1.80;;;4.00;94.60;;;;;;10115591;28;20057;-62
2021/12/10 11:36:53;;;;;;;3.20;1.98;;;4.00;94.70;;;;;;10111853;28;20126;-61
2021/12/10 11:41:44;;;;;;;3.08;2.22;;;4.00;94.70;;;;;;10111768;28;20055;-62
2021/12/10 11:46:51;;;;;;;4.32;1.90;;;3.90;94.70;;;;;;10132721;28;20041;-67
2021/12/10 11:52:02;;;;;;;5.13;2.58;;;3.80;94.80;;;;;;10129922;28;20529;-65
2021/12/10 11:57:03;;;;;;;5.78;2.35;;;3.90;94.70;;;;;;10120834;28;20380;-64
2021/12/10 12:01:59;;;;;;;2.78;1.80;;;3.80;94.60;;;;;;10124911;28;20572;-67
2021/12/10 12:07:18;;;;;;;3.15;1.77;;;3.90;94.70;;;;;;10112987;28;20039;-65
2021/12/10 12:12:20;;;;;;;2.50;1.90;;;3.90;94.70;;;;;;10121362;28;20380;-68
2021/12/10 12:17:45;;;;;;;4.05;2.58;;;3.90;94.70;;;;;;10129992;28;20048;-70
2021/12/10 12:28:02;;;;;;;4.20;2.08;;;3.80;94.70;;;;;;10117186;28;20515;-64
2021/12/10 12:32:55;;;;;;;3.17;1.63;;;3.80;94.80;;;;;;10108605;28;20465;-64
2021/12/10 12:37:46;;;;;;;2.85;1.90;;;3.90;94.80;;;;;;10119508;28;20024;-63
2021/12/10 12:42:43;;;;;;;6.18;2.35;;;3.80;94.90;;;;;;10117451;28;20051;-66
2021/12/10 12:47:40;;;;;;;2.80;1.60;;;3.90;94.80;;;;;;10115821;28;20036;-62
2021/12/10 12:52:47;;;;;;;4.88;2.35;;;4.00;94.80;;;;;;10109885;28;20522;-62
2021/12/10 12:57:47;;;;;;;4.30;2.78;;;4.00;94.90;;;;;;10113653;28;20107;-62
2021/12/10 13:02:38;;;;;;;3.95;2.35;;;4.20;94.80;;;;;;10114482;28;20040;-64
2021/12/10 13:07:29;;;;;;;3.40;1.83;;;4.10;95.00;;;;;;10112694;28;20039;-68
2021/12/10 13:12:45;;;;;;;2.17;1.63;;;4.10;95.10;;;;;;10120095;28;20755;-64
2021/12/10 13:17:40;;;;;;;4.50;2.40;;;4.20;95.10;;;;;;10124328;28;20612;-63
2021/12/10 13:22:33;;;;;;;3.00;1.85;;;4.30;95.00;;;;;;10122698;28;20463;-67
2021/12/10 13:27:24;;;;;;;3.38;1.83;;;4.30;95.30;;;;;;10119778;28;20075;-65
2021/12/10 13:32:15;;;;;;;4.53;2.00;;;4.40;95.10;;;;;;10118371;28;20041;-70
2021/12/10 13:37:11;;;;;;;4.43;1.90;;;4.40;95.10;;;;;;10116910;28;20403;-65
2021/12/10 13:42:03;;;;;;;4.07;1.60;;;4.50;95.10;;;;;;10115183;28;20025;-65
2021/12/10 13:46:56;;;;;;;3.55;1.40;;;4.50;95.00;;;;;;10123015;28;20116;-66
2021/12/10 13:51:53;;;;;;;2.05;1.50;;;4.50;95.10;;;;;;10118807;28;20031;-66
2021/12/10 13:57:04;;;;;;;2.75;1.40;;;4.50;95.20;;;;;;10120889;28;20056;-66
2021/12/10 14:02:00;;;;;;;2.78;1.65;;;4.50;95.20;;;;;;10114608;28;20060;-69
2021/12/10 14:07:06;;;;;;;1.77;1.67;;;4.50;95.30;;;;;;10119988;28;20107;-68
2021/12/10 14:12:11;;;;;;;;;;;4.50;95.30;;;;;;10120316;28;20657;-66
2021/12/10 14:17:08;;;;;;;6.78;1.67;;;4.60;95.40;;;;;;10119822;28;19962;-64
2021/12/10 14:22:01;;;;;;;1.80;1.08;;;4.60;95.20;;;;;;10129133;28;20080;-64
2021/12/10 14:27:22;;;;;;;2.83;1.30;;;4.70;95.30;;;;;;10124046;28;20119;-65
2021/12/10 14:32:22;;;;;;;3.47;1.60;;;4.80;95.20;;;;;;10129346;28;20430;-67
2021/12/10 14:37:13;;;;;;;2.42;1.40;;;4.80;95.20;;;;;;10125632;28;20050;-68
2021/12/10 14:42:10;;;;;;;3.20;1.98;;;4.90;95.30;;;;;;10130202;28;20431;-69
2021/12/10 14:47:05;;;;;;;3.20;1.92;;;4.80;95.30;;;;;;10126019;28;20040;-67
2021/12/10 14:52:34;;;;;;;2.70;1.45;;;4.90;95.30;;;;;;10127296;28;20021;-66
2021/12/10 14:57:48;;;;;;;1.23;1.13;;;4.90;95.30;;;;;;10122951;28;20039;-69
2021/12/10 15:02:40;;;;;;;1.98;1.17;;;4.90;95.30;;;;;;10126006;28;20032;-67
2021/12/10 15:07:41;;;;;;;2.60;1.50;;;4.90;95.40;;;;;;10122102;28;20542;-65
2021/12/10 15:12:46;;;;;;;2.47;1.35;;;5.00;95.40;;;;;;10123703;28;20284;-69
2021/12/10 15:17:37;;;;;;;2.47;1.45;;;5.00;95.40;;;;;;10126382;28;20545;-63
2021/12/10 15:22:37;;;;;;;2.85;1.30;;;5.00;95.50;;;;;;10124287;28;20422;-63
2021/12/10 15:27:36;;;;;;;1.20;1.08;;;5.00;95.60;;;;;;10122482;28;20036;-64
2021/12/10 15:32:44;;;;;;;1.42;1.05;;;5.10;95.50;;;;;;10125062;28;20612;-70
2021/12/10 15:37:36;;;;;;;1.75;1.50;;;5.20;95.50;;;;;;10124851;28;20021;-70
2021/12/10 15:42:29;;;;;;;1.88;1.42;;;5.20;95.40;;;;;;10120486;28;20543;-69
2021/12/10 15:47:25;;;;;;;1.98;1.30;;;5.20;95.40;;;;;;10128033;28;20167;-65
2021/12/10 15:52:20;;;;;;;1.53;1.07;;;5.20;95.50;;;;;;10121171;28;20518;-68
2021/12/10 15:57:19;;;;;;;1.52;0.90;;;5.20;95.60;;;;;;10123072;28;20024;-71
2021/12/10 16:02:13;;;;;;;1.52;0.98;;;5.20;95.60;;;;;;10126083;28;20049;-69
2021/12/10 16:07:12;;;;;;;3.17;1.25;;;5.20;95.70;;;;;;10138498;28;20167;-68
2021/12/10 16:12:04;;;;;;;2.45;1.33;;;5.30;95.60;;;;;;10120373;28;20088;-66
2021/12/10 16:16:55;;;;;;;1.17;1.08;;;5.20;95.60;;;;;;10115797;28;20025;-63
2021/12/10 16:22:18;;;;;;;1.58;1.02;;;5.30;95.60;;;;;;10119185;28;20319;-64
2021/12/10 16:27:16;;;;;;;2.22;1.27;;;5.30;95.80;;;;;;10103709;28;20056;-65
2021/12/10 16:32:17;;;;;;;2.00;1.17;;;5.30;95.70;;;;;;10125244;28;20070;-68
2021/12/10 16:37:10;;;;;;;1.73;1.02;;;5.40;95.70;;;;;;10124446;28;20545;-64
2021/12/10 16:42:01;;;;;;;1.65;1.20;;;5.40;95.70;;;;;;10121727;28;20024;-64
2021/12/10 16:46:56;;;;;;;2.92;1.10;;;5.40;95.60;;;;;;10122168;28;21259;-67
2021/12/10 16:51:57;;;;;;;1.20;0.85;;;5.50;95.70;;;;;;10121557;28;20103;-63
2021/12/10 16:56:55;;;;;;;1.27;0.93;;;5.50;95.70;;;;;;10122228;28;20096;-65
2021/12/10 17:01:48;;;;;;;1.38;1.15;;;5.40;95.80;;;;;;10120088;28;20304;-60
2021/12/10 17:06:50;;;;;;;1.20;1.00;;;5.50;95.80;;;;;;10116626;28;20434;-70
2021/12/10 17:11:45;;;;;;;2.95;0.95;;;5.50;95.70;;;;;;10126356;28;20589;-67
2021/12/10 17:16:45;;;;;;;3.00;1.63;;;5.60;95.70;;;;;;10115267;28;20040;-64
2021/12/10 17:21:46;;;;;;;4.07;2.55;;;5.60;95.70;;;;;;10119015;28;20391;-68
2021/12/10 17:26:39;;;;;;;8.38;3.92;;;5.60;95.70;;;;;;10105890;28;20571;-65
2021/12/10 17:31:34;;;;;;;7.32;2.47;;;5.60;95.70;;;;;;10130102;28;20673;-64
2021/12/10 17:36:39;;;;;;;2.45;1.65;;;5.70;95.70;;;;;;10120208;28;20025;-64
2021/12/10 17:41:32;;;;;;;6.57;2.28;;;5.80;95.60;;;;;;10111067;28;20041;-62
2021/12/10 17:46:46;;;;;;;9.93;3.92;;;5.90;95.40;;;;;;10124726;28;20055;-67
2021/12/10 17:51:44;;;;;;;6.97;2.83;;;5.90;95.20;;;;;;10129129;28;20040;-68
2021/12/10 17:56:35;;;;;;;16.92;7.80;;;6.00;95.30;;;;;;10125587;28;20032;-67
2021/12/10 18:01:37;;;;;;;7.60;2.03;;;6.00;95.20;;;;;;10126667;28;20555;-68
2021/12/10 18:06:33;;;;;;;3.35;1.63;;;6.10;95.20;;;;;;10125688;28;20120;-65
2021/12/10 18:11:24;;;;;;;5.43;2.10;;;6.00;95.10;;;;;;10121169;28;20071;-66
2021/12/10 18:16:23;;;;;;;4.00;1.60;;;6.00;95.00;;;;;;10119854;28;20028;-65
2021/12/10 18:21:44;;;;;;;5.93;1.92;;;6.00;95.00;;;;;;10121264;28;20554;-67
2021/12/10 18:26:41;;;;;;;3.75;1.38;;;6.00;95.00;;;;;;10117623;28;20048;-67
2021/12/10 18:31:38;;;;;;;4.50;1.38;;;5.90;94.90;;;;;;10123681;28;20021;-69
2021/12/10 18:36:31;;;;;;;2.22;1.30;;;5.90;94.90;;;;;;10118744;28;20032;-66
2021/12/10 18:41:22;;;;;;;1.83;1.10;;;5.90;94.90;;;;;;10120802;28;20031;-64
2021/12/10 18:46:17;;;;;;;1.42;0.55;;;5.80;94.90;;;;;;10119414;28;20040;-62
2021/12/10 18:51:16;;;;;;;3.63;1.20;;;5.80;94.70;;;;;;10109743;28;20052;-65
2021/12/10 18:56:10;;;;;;;2.70;0.95;;;5.70;94.80;;;;;;10102601;28;20214;-67
2021/12/10 19:01:13;;;;;;;1.23;0.82;;;5.70;94.70;;;;;;10120193;28;20021;-67
2021/12/10 19:06:13;;;;;;;2.13;1.05;;;5.80;94.70;;;;;;10121748;28;20759;-64
2021/12/10 19:11:09;;;;;;;3.85;1.08;;;5.80;94.70;;;;;;10125133;28;20455;-66
2021/12/10 19:16:08;;;;;;;1.83;0.90;;;5.70;94.60;;;;;;10122367;28;20021;-70
2021/12/10 19:21:08;;;;;;;2.17;1.67;;;5.80;94.60;;;;;;10126760;28;20048;-66
2021/12/10 19:26:04;;;;;;;3.53;1.67;;;5.80;94.50;;;;;;10117573;28;20040;-67
2021/12/10 19:30:57;;;;;;;;;;;5.80;94.60;;;;;;10118441;28;20552;-69
2021/12/10 19:36:00;;;;;;;2.42;1.23;;;5.70;94.70;;;;;;10118675;28;20090;-70
2021/12/10 19:40:58;;;;;;;4.13;1.55;;;5.60;94.70;;;;;;10125263;28;20050;-67
2021/12/10 19:46:06;;;;;;;3.15;1.55;;;5.70;94.70;;;;;;10122332;28;20517;-69
2021/12/10 19:51:11;;;;;;;7.50;2.97;;;5.70;94.70;;;;;;10124486;28;20059;-66
2021/12/10 19:56:31;;;;;;;8.98;4.18;;;5.60;94.70;;;;;;10123534;28;20025;-68
2021/12/10 20:01:33;;;;;;;5.65;2.60;;;5.60;94.80;;;;;;10120749;28;20026;-69
2021/12/10 20:06:47;;;;;;;3.83;3.10;;;5.60;94.80;;;;;;10125825;28;20048;-69
2021/12/10 20:11:43;;;;;;;12.73;4.68;;;5.60;94.80;;;;;;10115360;28;20031;-68
2021/12/10 20:16:44;;;;;;;5.25;2.30;;;5.60;94.70;;;;;;10114513;28;20029;-69
2021/12/10 20:22:02;;;;;;;3.60;1.50;;;5.60;94.60;;;;;;10122991;28;20640;-69
2021/12/10 20:27:00;;;;;;;2.38;1.30;;;5.60;94.60;;;;;;10119789;28;20064;-68
2021/12/10 20:31:56;;;;;;;2.80;1.45;;;5.60;94.60;;;;;;10121551;28;20422;-70
2021/12/10 20:36:56;;;;;;;1.77;1.27;;;5.60;94.60;;;;;;10123259;28;20023;-70
2021/12/10 20:41:57;;;;;;;5.13;2.08;;;5.60;94.50;;;;;;10122996;28;20830;-69
2021/12/10 20:47:00;;;;;;;2.17;1.02;;;5.70;94.40;;;;;;10122719;28;20033;-69
2021/12/10 20:51:56;;;;;;;3.55;1.50;;;5.70;94.30;;;;;;10123414;28;20047;-70
2021/12/10 20:56:54;;;;;;;2.85;1.42;;;5.70;94.30;;;;;;10127246;28;20074;-70
2021/12/10 21:01:53;;;;;;;1.70;1.00;;;5.70;94.20;;;;;;10120774;28;20036;-69
2021/12/10 21:06:48;;;;;;;4.05;1.35;;;5.70;94.10;;;;;;10132480;28;20186;-70
2021/12/10 21:11:46;;;;;;;1.07;0.80;;;5.80;94.00;;;;;;10125056;28;20505;-71
2021/12/10 21:16:46;;;;;;;1.52;0.93;;;5.80;93.90;;;;;;10111935;28;20028;-70
2021/12/10 21:21:44;;;;;;;4.45;1.50;;;5.80;93.80;;;;;;10127627;28;20045;-70
2021/12/10 21:26:41;;;;;;;0.50;0.45;;;5.80;93.90;;;;;;10123891;28;20065;-70
2021/12/10 21:31:36;;;;;;;3.90;1.30;;;5.80;93.70;;;;;;10140780;28;20181;-70
2021/12/10 21:37:55;;;;;;;1.27;0.95;;;5.70;93.70;;;;;;10123894;28;20029;-69
2021/12/10 21:41:44;;;;;;;1.73;1.58;;;5.70;93.70;;;;;;10122134;28;20033;-72
2021/12/10 21:46:43;;;;;;;1.63;0.82;;;5.70;93.70;;;;;;10108001;28;20033;-71
2021/12/10 21:51:48;;;;;;;1.85;0.55;;;5.70;93.70;;;;;;10106434;28;20017;-70
2021/12/10 21:56:40;;;;;;;3.25;1.27;;;5.70;93.70;;;;;;10126830;28;20024;-72
2021/12/10 22:01:37;;;;;;;2.25;0.77;;;5.70;93.60;;;;;;10106162;28;20025;-71
2021/12/10 22:06:33;;;;;;;2.30;1.42;;;5.70;93.60;;;;;;10115895;28;20029;-70
2021/12/10 22:11:27;;;;;;;2.00;1.08;;;5.70;93.70;;;;;;10113110;28;20024;-70
2021/12/10 22:16:27;;;;;;;4.80;1.00;;;5.70;93.50;;;;;;10110996;28;20033;-72
2021/12/10 22:21:24;;;;;;;1.42;0.85;;;5.70;93.50;;;;;;10113043;28;20111;-72
2021/12/10 22:26:17;;;;;;;2.38;0.68;;;5.70;93.50;;;;;;10104654;28;20049;-70
2021/12/10 22:31:19;;;;;;;1.45;0.60;;;5.70;93.50;;;;;;10122642;28;20017;-71
2021/12/10 22:36:17;;;;;;;0.90;0.65;;;5.70;93.60;;;;;;10112321;28;20503;-73
2021/12/10 22:41:11;;;;;;;1.65;0.65;;;5.70;93.60;;;;;;10118576;28;20078;-71
2021/12/10 22:46:16;;;;;;;1.23;0.70;;;5.70;93.60;;;;;;10121230;28;20032;-70
2021/12/10 22:51:17;;;;;;;1.15;0.70;;;5.70;93.70;;;;;;10117374;28;20506;-74
2021/12/10 22:56:13;;;;;;;3.33;1.05;;;5.60;93.80;;;;;;10111047;28;20036;-73
2021/12/10 23:01:31;;;;;;;2.15;1.48;;;5.60;93.70;;;;;;10128923;28;20494;-71
2021/12/10 23:06:27;;;;;;;2.92;1.50;;;5.60;93.80;;;;;;10116335;28;20655;-71
2021/12/10 23:11:24;;;;;;;2.80;1.70;;;5.60;93.80;;;;;;10121651;28;20333;-67
2021/12/10 23:16:26;;;;;;;1.25;0.90;;;5.60;93.80;;;;;;10114245;28;20086;-71
2021/12/10 23:21:17;;;;;;;1.38;1.08;;;5.60;93.80;;;;;;10130485;28;20518;-70
2021/12/10 23:26:08;;;;;;;2.30;0.88;;;5.50;93.90;;;;;;10118673;28;20031;-71
2021/12/10 23:31:10;;;;;;;3.13;1.30;;;5.60;93.80;;;;;;10126220;28;20115;-74
2021/12/10 23:36:15;;;;;;;1.30;0.63;;;5.50;93.90;;;;;;10113602;28;20546;-72
2021/12/10 23:41:24;;;;;;;0.75;0.50;;;5.60;93.90;;;;;;10116935;28;20032;-72
2021/12/10 23:46:17;;;;;;;0.90;0.60;;;5.50;94.00;;;;;;10123973;28;20060;-72
2021/12/10 23:51:08;;;;;;;0.70;0.43;;;5.50;94.00;;;;;;10118503;28;20400;-74
2021/12/10 23:56:03;;;;;;;1.00;0.57;;;5.50;94.00;;;;;;10124972;28;20025;-72
